Time;durP1;ratioP1;P1;durP2;ratioP2;P2;SDS_P1;SDS_P2;PMS_P1;PMS_P2;Temp;Humidity;BMP_temperature;BMP_pressure;BME280_temperature;BME280_humidity;BME280_pressure;Samples;Min_cycle;Max_cycle;Signal;HPM_P1;HPM_P2
2024/04/03 00:03:13;;;;;;;0.40;0.40;;;;;;;9.81;100.00;100545.50;10458546;28;20120;-74
2024/04/03 00:08:13;;;;;;;0.57;0.57;;;;;;;9.76;100.00;100532.56;10457725;28;20583;-74
2024/04/03 00:13:14;;;;;;;0.20;0.20;;;;;;;9.70;100.00;100538.78;10458802;28;20228;-72
2024/04/03 00:18:14;;;;;;;0.77;0.75;;;;;;;9.73;100.00;100533.81;10458160;28;20056;-72
2024/04/03 00:23:15;;;;;;;1.23;1.20;;;;;;;9.73;100.00;100520.31;10458530;28;20052;-71
2024/04/03 00:28:15;;;;;;;0.50;0.50;;;;;;;9.67;100.00;100521.09;10458212;28;20029;-72
2024/04/03 00:33:15;;;;;;;0.43;0.43;;;;;;;9.62;100.00;100517.31;10457509;28;20433;-72
2024/04/03 00:38:16;;;;;;;1.50;1.40;;;;;;;9.65;100.00;100516.94;10455749;28;20087;-71
2024/04/03 00:43:16;;;;;;;0.50;0.50;;;;;;;9.66;100.00;100508.59;10460025;28;20025;-71
2024/04/03 00:48:17;;;;;;;1.83;1.80;;;;;;;9.74;100.00;100491.38;10458559;28;20029;-71
2024/04/03 00:53:17;;;;;;;0.50;0.50;;;;;;;9.77;100.00;100483.69;10445525;28;20033;-70
2024/04/03 00:58:18;;;;;;;0.82;0.82;;;;;;;9.84;100.00;100482.91;10440265;28;20071;-70
2024/04/03 01:03:18;;;;;;;0.63;0.63;;;;;;;9.89;100.00;100473.16;10457705;28;20388;-71
2024/04/03 01:08:18;;;;;;;0.82;0.82;;;;;;;9.94;100.00;100467.94;10457112;28;20044;-72
2024/04/03 01:13:19;;;;;;;1.02;1.02;;;;;;;9.94;100.00;100461.69;10455695;28;20047;-72
2024/04/03 01:18:19;;;;;;;2.50;2.35;;;;;;;9.92;100.00;100452.94;10457362;28;20131;-73
2024/04/03 01:23:20;;;;;;;3.22;3.03;;;;;;;10.00;100.00;100444.66;10455852;28;20077;-73
2024/04/03 01:28:21;;;;;;;0.40;0.40;;;;;;;10.05;100.00;100444.03;10455139;28;20025;-73
2024/04/03 01:33:22;;;;;;;2.75;2.65;;;;;;;9.98;100.00;100425.91;10438293;28;20039;-74
2024/04/03 01:38:22;;;;;;;1.10;1.10;;;;;;;10.01;100.00;100432.78;10439099;28;20040;-74
2024/04/03 01:43:23;;;;;;;0.50;0.50;;;;;;;10.06;100.00;100410.53;10456094;28;20453;-74
2024/04/03 01:48:23;;;;;;;0.43;0.43;;;;;;;9.98;100.00;100409.69;10456177;28;20024;-74
2024/04/03 01:53:23;;;;;;;1.25;1.25;;;;;;;9.98;100.00;100393.44;10454707;28;20059;-74
2024/04/03 01:58:24;;;;;;;3.88;3.40;;;;;;;9.87;100.00;100394.06;10421934;28;20036;-74
2024/04/03 02:03:24;;;;;;;0.40;0.40;;;;;;;9.90;100.00;100382.84;10454483;28;20029;-76
2024/04/03 02:08:25;;;;;;;0.43;0.43;;;;;;;9.93;100.00;100378.91;10437480;28;20072;-74
2024/04/03 02:13:25;;;;;;;0.40;0.40;;;;;;;9.87;100.00;100374.31;10456880;28;20040;-73
2024/04/03 02:18:26;;;;;;;0.80;0.80;;;;;;;9.77;100.00;100367.44;10456177;28;20345;-74
2024/04/03 02:23:26;;;;;;;2.03;1.88;;;;;;;9.83;100.00;100375.75;10454474;28;20083;-74
2024/04/03 02:28:26;;;;;;;0.40;0.40;;;;;;;9.74;100.00;100354.31;10455568;28;20441;-74
2024/04/03 02:33:27;;;;;;;0.63;0.63;;;;;;;9.73;100.00;100351.81;10436787;28;20210;-74
2024/04/03 02:38:28;;;;;;;0.50;0.50;;;;;;;9.69;100.00;100340.56;10454870;28;20033;-74
2024/04/03 02:43:28;;;;;;;0.75;0.75;;;;;;;9.64;100.00;100332.25;10455426;28;20037;-74
2024/04/03 02:48:29;;;;;;;1.05;1.05;;;;;;;9.61;100.00;100331.84;10453569;28;20119;-74
2024/04/03 02:53:30;;;;;;;0.43;0.43;;;;;;;9.53;100.00;100325.56;10453996;28;20094;-74
2024/04/03 02:58:30;;;;;;;2.15;2.05;;;;;;;9.54;100.00;100323.72;10456278;28;20108;-74
2024/04/03 03:03:31;;;;;;;0.60;0.60;;;;;;;9.50;100.00;100328.69;10464352;28;20037;-74
2024/04/03 03:08:33;;;;;;;0.57;0.57;;;;;;;9.44;100.00;100315.97;10447604;28;20076;-74
2024/04/03 03:13:33;;;;;;;0.40;0.40;;;;;;;9.45;100.00;100317.66;10461865;28;20025;-75
2024/04/03 03:18:34;;;;;;;0.50;0.50;;;;;;;9.44;100.00;100313.28;10443138;28;20436;-74
2024/04/03 03:23:34;;;;;;;0.40;0.40;;;;;;;9.45;100.00;100304.16;10461522;28;20029;-74
2024/04/03 03:28:35;;;;;;;0.50;0.50;;;;;;;9.32;100.00;100290.63;10460424;28;20036;-73
2024/04/03 03:33:38;;;;;;;0.40;0.40;;;;;;;9.38;100.00;100288.94;10459782;28;20429;-74
2024/04/03 03:38:38;;;;;;;0.40;0.40;;;;;;;9.43;100.00;100291.88;10460145;28;20054;-74
2024/04/03 03:43:39;;;;;;;0.32;0.32;;;;;;;9.44;100.00;100283.56;10460478;28;20033;-73
2024/04/03 03:53:58;;;;;;;0.30;0.30;;;;;;;9.44;100.00;100266.50;10458981;28;20452;-74
2024/04/03 03:58:58;;;;;;;0.40;0.40;;;;;;;9.33;100.00;100265.25;10441570;28;20025;-74
2024/04/03 04:04:00;;;;;;;1.27;1.27;;;;;;;9.35;100.00;100252.38;10458358;28;20028;-73
2024/04/03 04:09:01;;;;;;;0.30;0.30;;;;;;;9.36;100.00;100254.03;10456863;28;20375;-74
2024/04/03 04:14:01;;;;;;;0.47;0.47;;;;;;;9.41;100.00;100248.00;10457433;28;20028;-76
2024/04/03 04:19:01;;;;;;;0.40;0.40;;;;;;;9.39;100.00;100240.13;10458814;28;20088;-75
2024/04/03 04:24:03;;;;;;;0.35;0.35;;;;;;;9.45;100.00;100241.16;10458932;28;20468;-74
2024/04/03 04:29:04;;;;;;;0.60;0.60;;;;;;;9.50;100.00;100241.38;10458082;28;20078;-77
2024/04/03 04:34:04;;;;;;;0.50;0.50;;;;;;;9.50;100.00;100233.25;10456858;28;20028;-76
2024/04/03 04:39:04;;;;;;;0.32;0.32;;;;;;;9.51;100.00;100232.25;10474552;28;20029;-75
2024/04/03 04:44:05;;;;;;;0.40;0.40;;;;;;;9.47;100.00;100233.66;10458572;28;20382;-76
2024/04/03 04:49:06;;;;;;;0.40;0.40;;;;;;;9.45;100.00;100225.78;10457962;28;20024;-75
2024/04/03 04:54:06;;;;;;;1.42;1.42;;;;;;;9.40;100.00;100228.25;10457362;28;20460;-73
2024/04/03 04:59:08;;;;;;;0.40;0.40;;;;;;;9.38;100.00;100227.66;10457486;28;20033;-75
2024/04/03 05:04:09;;;;;;;0.70;0.70;;;;;;;9.39;100.00;100225.78;10455736;28;20029;-75
2024/04/03 05:09:10;;;;;;;1.83;1.75;;;;;;;9.43;100.00;100225.16;10394304;28;20128;-75
2024/04/03 05:14:10;;;;;;;0.70;0.70;;;;;;;9.44;100.00;100213.28;10457547;28;20528;-75
2024/04/03 05:19:11;;;;;;;0.55;0.55;;;;;;;9.45;100.00;100206.03;10456168;28;20049;-76
2024/04/03 05:24:11;;;;;;;0.40;0.40;;;;;;;9.44;100.00;100196.25;10455343;28;20433;-76
2024/04/03 05:29:11;;;;;;;1.15;1.15;;;;;;;9.49;100.00;100200.00;10454830;28;20032;-76
2024/04/03 05:34:12;;;;;;;0.40;0.40;;;;;;;9.57;100.00;100196.25;10454078;28;20091;-75
2024/04/03 05:39:12;;;;;;;0.38;0.38;;;;;;;9.66;100.00;100196.88;10456586;28;20041;-75
2024/04/03 05:44:12;;;;;;;0.75;0.75;;;;;;;9.77;100.00;100196.25;10455727;28;20086;-75
2024/04/03 05:49:13;;;;;;;0.70;0.70;;;;;;;9.77;100.00;100191.69;10454399;28;20060;-75
2024/04/03 05:54:13;;;;;;;1.42;1.42;;;;;;;9.84;100.00;100180.03;10454911;28;20132;-75
2024/04/03 05:59:14;;;;;;;0.60;0.60;;;;;;;9.90;100.00;100176.47;10453477;28;20044;-76
2024/04/03 06:04:15;;;;;;;6.22;1.60;;;;;;;9.93;100.00;100181.47;10454368;28;20040;-76
2024/04/03 06:09:15;;;;;;;0.40;0.40;;;;;;;9.98;100.00;100176.22;10452528;28;20449;-75
2024/04/03 06:14:16;;;;;;;0.47;0.47;;;;;;;10.14;100.00;100186.59;10454502;28;20143;-76
2024/04/03 06:19:16;;;;;;;0.68;0.68;;;;;;;10.12;100.00;100191.41;10454586;28;20449;-76
2024/04/03 06:24:17;;;;;;;2.97;2.70;;;;;;;10.14;100.00;100172.25;10455007;28;20127;-76
2024/04/03 06:29:18;;;;;;;1.13;1.13;;;;;;;10.29;100.00;100174.75;10469295;28;20040;-76
2024/04/03 06:34:19;;;;;;;0.50;0.50;;;;;;;10.37;100.00;100175.34;10457804;28;20043;-76
2024/04/03 06:39:19;;;;;;;0.52;0.52;;;;;;;10.45;100.00;100172.38;10462321;28;20475;-75
2024/04/03 06:44:20;;;;;;;0.47;0.47;;;;;;;10.43;100.00;100170.94;10461911;28;20112;-75
2024/04/03 06:49:21;;;;;;;0.40;0.40;;;;;;;10.43;100.00;100168.22;10461526;28;20460;-76
2024/04/03 06:54:21;;;;;;;1.02;1.02;;;;;;;10.63;100.00;100168.16;10462451;28;20041;-75
2024/04/03 06:59:22;;;;;;;0.35;0.35;;;;;;;10.62;100.00;100166.47;10461647;28;20091;-76
2024/04/03 07:04:22;;;;;;;13.05;2.78;;;;;;;10.55;100.00;100168.38;10461917;28;20036;-76
2024/04/03 07:09:23;;;;;;;0.50;0.50;;;;;;;10.60;100.00;100155.88;10461662;28;20120;-77
2024/04/03 07:14:23;;;;;;;0.63;0.63;;;;;;;10.71;100.00;100151.63;10461407;28;20036;-76
2024/04/03 07:19:23;;;;;;;0.32;0.32;;;;;;;10.64;100.00;100161.69;10459770;28;20048;-75
2024/04/03 07:24:24;;;;;;;0.70;0.70;;;;;;;10.65;100.00;100166.88;10461916;28;20057;-76
2024/04/03 07:29:24;;;;;;;0.70;0.70;;;;;;;10.67;100.00;100166.66;10460305;28;20032;-76
2024/04/03 07:34:25;;;;;;;0.50;0.50;;;;;;;10.50;100.00;100171.75;10459762;28;20037;-76
2024/04/03 07:39:26;;;;;;;0.43;0.43;;;;;;;10.54;100.00;100159.44;10460410;28;20040;-75
2024/04/03 07:44:26;;;;;;;0.50;0.50;;;;;;;10.71;100.00;100159.75;10458759;28;20079;-75
2024/04/03 07:49:27;;;;;;;1.70;1.67;;;;;;;11.05;100.00;100160.41;10458922;28;20378;-77
2024/04/03 07:54:27;;;;;;;1.77;1.67;;;;;;;11.07;100.00;100150.16;10459236;28;20029;-76
2024/04/03 07:59:28;;;;;;;0.40;0.40;;;;;;;11.23;100.00;100159.63;10458588;28;20098;-75
2024/04/03 08:04:29;;;;;;;1.05;1.02;;;;;;;11.26;100.00;100162.72;10458925;28;20033;-75
2024/04/03 08:09:32;;;;;;;0.40;0.40;;;;;;;11.22;100.00;100152.56;10457289;28;20044;-74
2024/04/03 08:14:32;;;;;;;0.50;0.50;;;;;;;11.50;100.00;100157.56;10459577;28;20044;-76
2024/04/03 08:19:33;;;;;;;0.40;0.40;;;;;;;11.57;100.00;100147.47;10457614;28;20049;-74
2024/04/03 08:24:34;;;;;;;0.40;0.40;;;;;;;11.59;100.00;100157.06;10459412;28;20028;-77
2024/04/03 08:29:42;;;;;;;0.65;0.65;;;;;;;11.48;100.00;100155.06;10457705;28;20029;-75
2024/04/03 08:34:43;;;;;;;0.70;0.70;;;;;;;11.39;100.00;100162.66;10458434;28;20052;-75
2024/04/03 08:39:43;;;;;;;0.47;0.47;;;;;;;11.46;100.00;100151.75;10457917;28;20029;-75
2024/04/03 08:44:44;;;;;;;0.50;0.50;;;;;;;11.80;100.00;100163.94;10457742;28;20091;-75
2024/04/03 08:49:44;;;;;;;0.50;0.50;;;;;;;11.91;100.00;100150.75;10441023;28;20103;-75
2024/04/03 08:54:45;;;;;;;0.50;0.50;;;;;;;11.96;100.00;100157.13;10456600;28;20356;-76
2024/04/03 08:59:45;;;;;;;0.90;0.90;;;;;;;12.03;100.00;100152.47;10456567;28;20339;-77
2024/04/03 09:04:45;;;;;;;0.43;0.43;;;;;;;12.16;100.00;100145.25;10439600;28;20025;-76
2024/04/03 09:09:47;;;;;;;0.50;0.50;;;;;;;12.31;100.00;100149.22;10439911;28;20472;-74
2024/04/03 09:14:47;;;;;;;0.40;0.40;;;;;;;12.45;100.00;100147.19;10456537;28;20040;-74
2024/04/03 09:19:51;;;;;;;0.82;0.82;;;;;;;12.40;100.00;100154.34;10456393;28;20045;-75
2024/04/03 09:24:52;;;;;;;1.15;1.15;;;;;;;12.42;100.00;100157.69;10456172;28;20029;-75
2024/04/03 09:29:56;;;;;;;0.60;0.60;;;;;;;12.43;100.00;100156.63;10456108;28;20441;-75
2024/04/03 09:34:56;;;;;;;0.90;0.90;;;;;;;12.67;100.00;100158.41;10454860;28;20093;-74
2024/04/03 09:39:57;;;;;;;0.65;0.65;;;;;;;12.74;100.00;100153.69;10454148;28;20028;-75
2024/04/03 09:45:06;;;;;;;0.88;0.88;;;;;;;12.99;100.00;100158.16;10453548;28;20110;-73
2024/04/03 09:50:07;;;;;;;6.65;5.40;;;;;;;12.74;100.00;100147.44;10440368;28;20024;-76
2024/04/03 09:55:08;;;;;;;6.68;6.10;;;;;;;12.58;100.00;100154.34;10438349;28;20024;-75
2024/04/03 10:00:10;;;;;;;6.03;5.40;;;;;;;12.39;100.00;100152.69;10454441;28;20111;-75
2024/04/03 10:05:10;;;;;;;7.03;6.10;;;;;;;12.56;100.00;100161.88;10455115;28;20131;-73
2024/04/03 10:10:19;;;;;;;7.00;6.30;;;;;;;12.75;100.00;100158.06;10461321;28;20536;-74
2024/04/03 10:15:23;;;;;;;7.15;6.55;;;;;;;12.80;100.00;100160.94;10462895;28;20098;-74
2024/04/03 10:20:34;;;;;;;5.20;4.75;;;;;;;12.78;100.00;100159.50;10461619;28;20029;-75
2024/04/03 10:25:35;;;;;;;9.43;4.63;;;;;;;12.44;100.00;100156.38;10462845;28;20029;-76
2024/04/03 10:30:37;;;;;;;4.50;4.10;;;;;;;12.13;100.00;100157.38;10461697;28;20487;-74
2024/04/03 10:35:37;;;;;;;3.78;3.55;;;;;;;11.76;100.00;100161.91;10460789;28;20032;-76
2024/04/03 10:40:38;;;;;;;4.10;3.78;;;;;;;11.72;100.00;100158.00;10462594;28;20437;-76
2024/04/03 10:45:38;;;;;;;4.63;4.22;;;;;;;12.00;100.00;100152.09;10461868;28;20452;-77
2024/04/03 10:50:38;;;;;;;5.28;4.80;;;;;;;12.02;100.00;100150.81;10444666;28;20330;-77
2024/04/03 10:55:39;;;;;;;5.88;4.47;;;;;;;12.16;100.00;100139.81;10462023;28;20034;-76
2024/04/03 11:00:40;;;;;;;5.32;4.90;;;;;;;12.31;100.00;100148.41;10460856;28;20108;-76
2024/04/03 11:05:41;;;;;;;5.43;4.97;;;;;;;12.14;100.00;100142.75;10462879;28;20032;-78
2024/04/03 11:10:41;;;;;;;5.45;4.13;;;;;;;12.19;100.00;100142.06;10463449;28;20068;-76
2024/04/03 11:15:41;;;;;;;4.88;4.43;;;;;;;12.14;100.00;100145.47;10466263;28;20045;-75
2024/04/03 11:20:42;;;;;;;6.07;5.57;;;;;;;12.38;100.00;100151.03;10469755;28;20041;-75
2024/04/03 11:25:42;;;;;;;5.63;5.13;;;;;;;12.65;100.00;100141.50;10466499;28;20449;-76
2024/04/03 11:30:45;;;;;;;6.85;6.30;;;;;;;12.68;100.00;100140.19;10460931;28;20044;-74
2024/04/03 11:35:45;;;;;;;5.70;5.28;;;;;;;12.84;100.00;100153.13;10459816;28;20401;-75
2024/04/03 11:40:45;;;;;;;5.40;4.82;;;;;;;12.84;100.00;100146.88;10460420;28;20029;-75
2024/04/03 11:45:46;;;;;;;5.32;4.63;;;;;;;12.78;100.00;100149.44;10460035;28;20055;-74
2024/04/03 11:50:46;;;;;;;5.32;4.93;;;;;;;13.04;100.00;100158.28;10460252;28;20029;-75
2024/04/03 11:55:47;;;;;;;5.28;4.85;;;;;;;12.88;100.00;100158.94;10475845;28;20024;-74
2024/04/03 12:00:47;;;;;;;8.40;5.32;;;;;;;12.85;100.00;100162.94;10459925;28;20033;-74
2024/04/03 12:05:48;;;;;;;4.03;3.72;;;;;;;12.97;100.00;100165.72;10474628;28;20033;-75
2024/04/03 12:10:49;;;;;;;4.90;4.03;;;;;;;13.07;100.00;100163.25;10459993;28;20119;-75
2024/04/03 12:15:50;;;;;;;5.05;4.28;;;;;;;13.41;100.00;100159.00;10458783;28;20052;-76
2024/04/03 12:20:53;;;;;;;7.38;5.22;;;;;;;14.29;100.00;100154.44;10458110;28;20037;-74
2024/04/03 12:25:54;;;;;;;8.70;5.95;;;;;;;15.07;100.00;100144.84;10441150;28;20356;-73
2024/04/03 12:30:55;;;;;;;10.88;5.30;;;;;;;15.07;100.00;100144.84;10457695;28;20037;-75
2024/04/03 12:35:55;;;;;;;3.97;3.67;;;;;;;16.76;100.00;100132.81;10458028;28;20024;-74
2024/04/03 12:40:57;;;;;;;4.20;3.90;;;;;;;15.90;100.00;100130.63;10455953;28;20364;-74
2024/04/03 12:46:02;;;;;;;4.53;4.13;;;;;;;17.21;100.00;100124.22;10457701;28;20032;-75
2024/04/03 12:51:03;;;;;;;6.72;3.03;;;;;;;16.62;100.00;100118.66;10458021;28;20029;-75
2024/04/03 12:56:03;;;;;;;5.00;3.83;;;;;;;15.98;100.00;100128.25;10457166;28;20321;-73
2024/04/03 13:01:05;;;;;;;6.97;4.65;;;;;;;15.72;100.00;100118.88;10456933;28;20112;-73
2024/04/03 13:06:06;;;;;;;3.90;3.55;;;;;;;15.28;100.00;100126.06;10457143;28;20021;-75
2024/04/03 13:11:06;;;;;;;7.13;2.63;;;;;;;15.45;100.00;100116.00;10456754;28;20457;-74
2024/04/03 13:16:07;;;;;;;6.53;4.40;;;;;;;14.97;100.00;100114.66;10456243;28;20122;-74
2024/04/03 13:21:07;;;;;;;8.73;3.75;;;;;;;14.38;100.00;100108.59;10456783;28;20037;-74
2024/04/03 13:26:08;;;;;;;6.55;4.28;;;;;;;14.48;100.00;100106.06;10456607;28;20349;-76
2024/04/03 13:31:08;;;;;;;4.65;4.20;;;;;;;14.75;100.00;100091.91;10456976;28;20063;-75
2024/04/03 13:36:09;;;;;;;3.65;3.30;;;;;;;14.33;100.00;100092.19;10454835;28;20025;-74
2024/04/03 13:41:11;;;;;;;4.10;3.58;;;;;;;13.63;100.00;100113.00;10454497;28;20040;-78
2024/04/03 13:46:11;;;;;;;9.80;4.20;;;;;;;13.60;100.00;100124.34;10455471;28;20025;-75
2024/04/03 13:51:12;;;;;;;6.30;3.47;;;;;;;13.40;100.00;100124.72;10455894;28;20503;-75
2024/04/03 13:56:14;;;;;;;9.75;4.90;;;;;;;13.24;100.00;100136.22;10456195;28;20029;-74
2024/04/03 14:01:14;;;;;;;9.60;4.07;;;;;;;13.12;100.00;100136.22;10455568;28;20029;-73
2024/04/03 14:06:15;;;;;;;6.65;4.18;;;;;;;13.08;100.00;100154.06;10453909;28;20461;-74
2024/04/03 14:11:15;;;;;;;4.75;3.67;;;;;;;13.11;100.00;100160.91;10455913;28;20116;-75
2024/04/03 14:16:16;;;;;;;5.78;3.13;;;;;;;12.79;100.00;100150.28;10455053;28;20049;-77
2024/04/03 14:21:18;;;;;;;5.45;2.08;;;;;;;13.18;100.00;100154.31;10469510;28;20481;-77
2024/04/03 14:26:18;;;;;;;3.50;2.72;;;;;;;14.07;100.00;100154.28;10455452;28;20021;-77
2024/04/03 14:31:19;;;;;;;12.02;3.65;;;;;;;14.72;100.00;100142.28;10454765;28;20037;-76
2024/04/03 14:36:19;;;;;;;3.60;2.40;;;;;;;14.78;100.00;100157.66;10453797;28;20040;-75
2024/04/03 14:41:19;;;;;;;7.10;2.33;;;;;;;14.38;100.00;100146.75;10454214;28;20112;-77
2024/04/03 14:46:20;;;;;;;4.40;2.67;;;;;;;14.43;100.00;100150.41;10454142;28;20056;-78
2024/04/03 14:51:21;;;;;;;13.68;4.07;;;;;;;14.26;100.00;100160.38;10454657;28;20037;-76
2024/04/03 14:56:21;;;;;;;2.88;2.67;;;;;;;14.04;100.00;100172.97;10459635;28;20106;-75
2024/04/03 15:01:23;;;;;;;7.35;2.47;;;;;;;13.96;100.00;100177.69;10460494;28;20033;-75
2024/04/03 15:06:24;;;;;;;6.88;2.05;;;;;;;13.96;100.00;100179.59;10461027;28;20033;-76
2024/04/03 15:11:24;;;;;;;6.05;3.00;;;;;;;13.75;100.00;100175.56;10444339;28;20037;-76
2024/04/03 15:16:25;;;;;;;3.00;1.85;;;;;;;13.63;100.00;100178.31;10461110;28;20084;-76
2024/04/03 15:21:25;;;;;;;2.72;1.60;;;;;;;13.37;100.00;100176.00;10460711;28;20051;-76
2024/04/03 15:26:26;;;;;;;11.68;2.38;;;;;;;13.09;100.00;100179.34;10460537;28;20041;-74
2024/04/03 15:31:26;;;;;;;3.78;1.92;;;;;;;13.35;100.00;100181.69;10460784;28;20033;-76
2024/04/03 15:36:27;;;;;;;3.35;2.13;;;;;;;13.45;100.00;100183.81;10460042;28;20368;-76
2024/04/03 15:41:29;;;;;;;5.97;2.47;;;;;;;13.36;100.00;100196.09;10459472;28;20091;-75
2024/04/03 15:46:29;;;;;;;5.50;2.80;;;;;;;13.00;100.00;100165.25;10460641;28;20040;-75
2024/04/03 15:51:29;;;;;;;6.15;2.05;;;;;;;12.83;100.00;100188.69;10460853;28;20025;-74
2024/04/03 15:56:30;;;;;;;6.45;2.70;;;;;;;12.76;100.00;100205.94;10458942;28;20029;-75
2024/04/03 16:01:30;;;;;;;8.05;3.63;;;;;;;12.63;100.00;100186.22;10457241;28;20029;-75
2024/04/03 16:06:31;;;;;;;6.57;2.40;;;;;;;12.59;100.00;100193.19;10458517;28;20029;-73
2024/04/03 16:11:31;;;;;;;8.70;3.03;;;;;;;12.57;100.00;100201.53;10458977;28;20041;-75
2024/04/03 16:16:31;;;;;;;1.83;1.67;;;;;;;12.55;100.00;100192.81;10458504;28;20477;-74
2024/04/03 16:21:32;;;;;;;7.25;2.72;;;;;;;12.44;100.00;100212.56;10458216;28;20112;-76
2024/04/03 16:26:32;;;;;;;3.88;2.10;;;;;;;12.25;100.00;100215.31;10457603;28;20041;-74
2024/04/03 16:31:33;;;;;;;2.97;2.60;;;;;;;12.13;100.00;100221.69;10458435;28;20115;-75
2024/04/03 16:36:33;;;;;;;4.88;1.92;;;;;;;12.00;100.00;100228.91;10457317;28;20101;-73
2024/04/03 16:41:33;;;;;;;4.82;1.92;;;;;;;11.89;100.00;100245.91;10458403;28;20380;-76
2024/04/03 16:46:34;;;;;;;5.55;2.25;;;;;;;11.87;100.00;100239.91;10440587;28;20025;-74
2024/04/03 16:51:34;;;;;;;3.17;1.80;;;;;;;11.66;100.00;100254.63;10457640;28;20384;-73
2024/04/03 16:56:35;;;;;;;2.25;2.03;;;;;;;11.70;100.00;100247.69;10456457;28;20033;-74
2024/04/03 17:01:35;;;;;;;6.82;2.35;;;;;;;11.59;100.00;100264.69;10455069;28;20036;-73
2024/04/03 17:06:36;;;;;;;3.05;1.95;;;;;;;11.50;100.00;100266.84;10456646;28;20056;-73
2024/04/03 17:11:37;;;;;;;2.55;2.17;;;;;;;11.46;100.00;100262.09;10456016;28;20542;-72
2024/04/03 17:16:37;;;;;;;13.32;3.83;;;;;;;11.57;100.00;100272.22;10437219;28;20103;-72
2024/04/03 17:21:38;;;;;;;7.63;3.33;;;;;;;11.41;100.00;100281.69;10455813;28;20037;-72
2024/04/03 17:26:38;;;;;;;7.00;3.42;;;;;;;11.37;100.00;100292.16;10455845;28;20029;-72
2024/04/03 17:31:41;;;;;;;3.15;2.30;;;;;;;11.34;100.00;100302.59;10455425;28;20037;-71
2024/04/03 17:36:41;;;;;;;8.20;3.30;;;;;;;11.30;100.00;100302.22;10453910;28;20029;-72
2024/04/03 17:41:42;;;;;;;14.10;2.90;;;;;;;11.20;100.00;100309.97;10455398;28;20113;-72
2024/04/03 17:46:43;;;;;;;18.42;3.65;;;;;;;11.24;100.00;100316.63;10456364;28;20025;-73
2024/04/03 17:51:44;;;;;;;15.30;4.93;;;;;;;11.24;100.00;100324.75;10454394;28;20032;-74
2024/04/03 17:56:45;;;;;;;9.60;3.35;;;;;;;11.24;100.00;100326.63;10453799;28;20028;-73
2024/04/03 18:01:45;;;;;;;19.27;4.88;;;;;;;11.23;100.00;100344.78;10453622;28;20098;-73
2024/04/03 18:06:46;;;;;;;5.63;3.92;;;;;;;11.18;100.00;100331.03;10453242;28;20028;-72
2024/04/03 18:11:46;;;;;;;16.23;4.28;;;;;;;11.10;100.00;100344.81;10455377;28;20041;-73
2024/04/03 18:16:46;;;;;;;8.52;4.28;;;;;;;11.10;100.00;100339.41;10455843;28;20115;-73
2024/04/03 18:21:47;;;;;;;14.48;5.03;;;;;;;11.03;100.00;100349.44;10454371;28;20033;-73
2024/04/03 18:26:47;;;;;;;28.73;6.57;;;;;;;11.03;100.00;100334.00;10455437;28;20449;-71
2024/04/03 18:31:48;;;;;;;17.02;5.25;;;;;;;10.97;100.00;100359.25;10459232;28;20439;-75
2024/04/03 18:36:48;;;;;;;12.88;6.95;;;;;;;11.02;100.00;100361.34;10463525;28;20064;-70
2024/04/03 18:41:48;;;;;;;30.00;6.65;;;;;;;11.00;100.00;100349.88;10463698;28;20036;-75
2024/04/03 18:46:49;;;;;;;24.48;5.15;;;;;;;11.01;100.00;100370.47;10461139;28;20124;-75
2024/04/03 18:51:50;;;;;;;28.70;4.70;;;;;;;11.05;100.00;100371.75;10462168;28;20461;-74
2024/04/03 18:56:51;;;;;;;26.30;7.28;;;;;;;11.00;100.00;100379.66;10461107;28;20333;-75
2024/04/03 19:01:52;;;;;;;30.88;7.80;;;;;;;11.05;100.00;100383.41;10462688;28;20040;-75
2024/04/03 19:06:52;;;;;;;23.95;6.30;;;;;;;11.07;100.00;100391.31;10465914;28;20364;-75
2024/04/03 19:11:53;;;;;;;20.27;6.75;;;;;;;11.02;100.00;100402.81;10467454;28;20049;-75
2024/04/03 19:16:56;;;;;;;28.25;6.80;;;;;;;11.01;100.00;100398.44;10465157;28;20055;-75
2024/04/03 19:21:56;;;;;;;16.42;6.22;;;;;;;10.93;100.00;100407.59;10467294;28;20085;-75
2024/04/03 19:26:57;;;;;;;28.92;7.47;;;;;;;10.93;100.00;100402.19;10464700;28;20096;-76
2024/04/03 19:31:57;;;;;;;27.77;7.72;;;;;;;11.01;100.00;100403.00;10466172;28;20029;-74
2024/04/03 19:36:57;;;;;;;26.63;6.45;;;;;;;10.99;100.00;100410.53;10466282;28;20567;-73
2024/04/03 19:41:58;;;;;;;26.60;7.70;;;;;;;11.00;100.00;100428.44;10465545;28;20041;-74
2024/04/03 19:46:58;;;;;;;20.35;6.22;;;;;;;10.96;100.00;100419.91;10466076;28;20090;-72
2024/04/03 19:51:59;;;;;;;20.10;6.65;;;;;;;10.97;100.00;100432.38;10465441;28;20032;-74
2024/04/03 19:56:59;;;;;;;19.45;6.10;;;;;;;11.00;100.00;100440.09;10466845;28;20040;-75
2024/04/03 20:02:00;;;;;;;29.77;7.50;;;;;;;10.95;100.00;100429.09;10466863;28;20028;-73
2024/04/03 20:07:00;;;;;;;27.95;7.10;;;;;;;10.92;100.00;100443.03;10463865;28;20021;-72
2024/04/03 20:12:00;;;;;;;26.10;7.30;;;;;;;10.91;100.00;100449.50;10462652;28;20041;-73
2024/04/03 20:17:01;;;;;;;16.52;6.38;;;;;;;10.92;100.00;100453.88;10463266;28;20053;-73
2024/04/03 20:22:03;;;;;;;15.02;7.53;;;;;;;10.94;100.00;100447.22;10464415;28;20479;-75
2024/04/03 20:27:04;;;;;;;13.43;6.20;;;;;;;10.86;100.00;100457.44;10461656;28;20119;-70
2024/04/03 20:32:05;;;;;;;16.17;5.22;;;;;;;10.87;100.00;100451.78;10458191;28;20441;-70
2024/04/03 20:37:07;;;;;;;16.20;5.30;;;;;;;10.82;100.00;100456.19;10442687;28;20039;-71
2024/04/03 20:42:07;;;;;;;23.33;6.15;;;;;;;10.76;100.00;100452.44;10459039;28;20036;-71
2024/04/03 20:47:07;;;;;;;32.75;6.68;;;;;;;10.58;100.00;100441.41;10458027;28;20039;-71
2024/04/03 20:52:08;;;;;;;28.23;6.72;;;;;;;10.60;100.00;100455.59;10457828;28;20037;-70
2024/04/03 20:57:08;;;;;;;19.95;6.38;;;;;;;10.54;100.00;100468.06;10458278;28;20032;-71
2024/04/03 21:02:09;;;;;;;19.35;6.07;;;;;;;10.45;100.00;100461.19;10456832;28;20372;-71
2024/04/03 21:07:09;;;;;;;28.42;7.18;;;;;;;10.39;100.00;100468.25;10458237;28;20052;-71
2024/04/03 21:12:10;;;;;;;14.65;4.75;;;;;;;10.38;100.00;100463.91;10455175;28;20479;-71
2024/04/03 21:17:10;;;;;;;19.35;6.72;;;;;;;10.22;100.00;100481.31;10456245;28;20472;-71
2024/04/03 21:22:11;;;;;;;19.92;7.75;;;;;;;10.35;100.00;100493.25;10456822;28;20065;-71
2024/04/03 21:27:11;;;;;;;18.05;5.68;;;;;;;10.41;100.00;100490.56;10457041;28;20434;-70
2024/04/03 21:32:12;;;;;;;34.97;7.45;;;;;;;10.35;100.00;100498.66;10472386;28;20158;-72
2024/04/03 21:37:14;;;;;;;19.83;5.70;;;;;;;10.23;100.00;100496.50;10455119;28;20056;-71
2024/04/03 21:42:14;;;;;;;23.52;5.70;;;;;;;10.17;100.00;100512.72;10455679;28;20495;-71
2024/04/03 21:47:15;;;;;;;18.15;5.30;;;;;;;10.24;100.00;100511.72;10438345;28;20029;-71
2024/04/03 21:52:15;;;;;;;16.35;6.25;;;;;;;10.35;100.00;100507.59;10455275;28;20036;-71
2024/04/03 21:57:15;;;;;;;33.60;6.20;;;;;;;10.45;100.00;100518.88;10455968;28;20028;-71
2024/04/03 22:02:16;;;;;;;15.35;6.75;;;;;;;10.51;100.00;100513.69;10454697;28;20060;-72
2024/04/03 22:07:17;;;;;;;10.82;5.78;;;;;;;10.48;100.00;100515.75;10471390;28;20032;-70
2024/04/03 22:12:17;;;;;;;14.63;6.10;;;;;;;10.51;100.00;100510.97;10456335;28;20124;-70
2024/04/03 22:17:18;;;;;;;20.60;6.38;;;;;;;10.41;100.00;100520.31;10456219;28;20087;-70
2024/04/03 22:22:18;;;;;;;19.35;6.95;;;;;;;10.38;100.00;100512.63;10455012;28;20044;-70
2024/04/03 22:27:19;;;;;;;18.58;6.05;;;;;;;10.25;100.00;100515.25;10455398;28;20441;-71
2024/04/03 22:32:19;;;;;;;19.88;5.07;;;;;;;10.02;100.00;100513.75;10454942;28;20031;-70
2024/04/03 22:37:19;;;;;;;16.88;5.97;;;;;;;9.84;100.00;100518.88;10437799;28;20420;-70
2024/04/03 22:42:20;;;;;;;14.18;5.63;;;;;;;9.71;100.00;100521.53;10454842;28;20464;-71
2024/04/03 22:47:20;;;;;;;17.05;5.78;;;;;;;9.61;100.00;100521.06;10454614;28;20033;-72
2024/04/03 22:52:21;;;;;;;12.38;4.50;;;;;;;9.58;100.00;100518.78;10453719;28;20029;-71